sensor_id;sensor_type;location;lat;lon;timestamp;P1;durP1;ratioP1;P2;durP2;ratioP2
63688;SDS011;54895;40.928;14.480;2023-04-24T00:01:38;17.42;;;10.15;;
63688;SDS011;54895;40.928;14.480;2023-04-24T00:04:05;13.38;;;9.95;;
63688;SDS011;54895;40.928;14.480;2023-04-24T00:06:32;14.60;;;9.48;;
63688;SDS011;54895;40.928;14.480;2023-04-24T00:08:59;14.38;;;10.05;;
63688;SDS011;54895;40.928;14.480;2023-04-24T00:11:26;16.65;;;9.45;;
63688;SDS011;54895;40.928;14.480;2023-04-24T00:13:53;12.93;;;9.52;;
63688;SDS011;54895;40.928;14.480;2023-04-24T00:16:19;12.23;;;8.90;;
63688;SDS011;54895;40.928;14.480;2023-04-24T00:36:45;13.18;;;8.15;;
63688;SDS011;54895;40.928;14.480;2023-04-24T00:39:12;11.43;;;8.25;;
63688;SDS011;54895;40.928;14.480;2023-04-24T00:41:38;11.68;;;8.35;;
63688;SDS011;54895;40.928;14.480;2023-04-24T00:44:04;11.75;;;8.20;;
63688;SDS011;54895;40.928;14.480;2023-04-24T00:46:31;11.57;;;7.72;;
63688;SDS011;54895;40.928;14.480;2023-04-24T00:48:59;14.07;;;7.53;;
63688;SDS011;54895;40.928;14.480;2023-04-24T00:51:26;9.40;;;6.82;;
63688;SDS011;54895;40.928;14.480;2023-04-24T00:53:53;10.60;;;7.47;;
63688;SDS011;54895;40.928;14.480;2023-04-24T00:56:19;10.20;;;6.95;;
63688;SDS011;54895;40.928;14.480;2023-04-24T00:58:45;10.15;;;6.82;;
63688;SDS011;54895;40.928;14.480;2023-04-24T01:01:12;12.32;;;7.20;;
63688;SDS011;54895;40.928;14.480;2023-04-24T01:03:39;10.98;;;7.10;;
63688;SDS011;54895;40.928;14.480;2023-04-24T01:06:06;9.35;;;6.93;;
63688;SDS011;54895;40.928;14.480;2023-04-24T01:08:33;11.60;;;7.78;;
63688;SDS011;54895;40.928;14.480;2023-04-24T01:11:03;10.48;;;7.40;;
63688;SDS011;54895;40.928;14.480;2023-04-24T01:13:31;12.98;;;7.75;;
63688;SDS011;54895;40.928;14.480;2023-04-24T01:15:58;9.75;;;7.30;;
63688;SDS011;54895;40.928;14.480;2023-04-24T01:18:24;12.05;;;8.30;;
63688;SDS011;54895;40.928;14.480;2023-04-24T01:20:53;13.77;;;8.63;;
63688;SDS011;54895;40.928;14.480;2023-04-24T01:23:23;13.55;;;8.40;;
63688;SDS011;54895;40.928;14.480;2023-04-24T01:25:51;14.02;;;9.00;;
63688;SDS011;54895;40.928;14.480;2023-04-24T01:28:18;11.38;;;8.10;;
63688;SDS011;54895;40.928;14.480;2023-04-24T01:30:44;10.77;;;8.02;;
63688;SDS011;54895;40.928;14.480;2023-04-24T01:33:11;12.73;;;8.60;;
63688;SDS011;54895;40.928;14.480;2023-04-24T01:35:37;13.18;;;8.90;;
63688;SDS011;54895;40.928;14.480;2023-04-24T01:38:05;12.60;;;8.95;;
63688;SDS011;54895;40.928;14.480;2023-04-24T01:40:32;11.90;;;8.85;;
63688;SDS011;54895;40.928;14.480;2023-04-24T01:42:58;12.45;;;8.73;;
63688;SDS011;54895;40.928;14.480;2023-04-24T01:45:25;14.38;;;8.98;;
63688;SDS011;54895;40.928;14.480;2023-04-24T01:47:51;11.23;;;8.13;;
63688;SDS011;54895;40.928;14.480;2023-04-24T01:50:18;12.80;;;8.50;;
63688;SDS011;54895;40.928;14.480;2023-04-24T01:52:45;12.68;;;8.07;;
63688;SDS011;54895;40.928;14.480;2023-04-24T01:55:11;13.68;;;8.43;;
63688;SDS011;54895;40.928;14.480;2023-04-24T01:57:38;14.88;;;8.95;;
63688;SDS011;54895;40.928;14.480;2023-04-24T02:00:04;13.98;;;8.70;;
63688;SDS011;54895;40.928;14.480;2023-04-24T02:02:39;14.05;;;8.27;;
63688;SDS011;54895;40.928;14.480;2023-04-24T02:05:07;11.85;;;8.18;;
63688;SDS011;54895;40.928;14.480;2023-04-24T02:07:36;10.20;;;7.75;;
63688;SDS011;54895;40.928;14.480;2023-04-24T02:10:03;11.25;;;6.65;;
63688;SDS011;54895;40.928;14.480;2023-04-24T02:12:32;7.82;;;5.53;;
63688;SDS011;54895;40.928;14.480;2023-04-24T02:14:59;6.35;;;4.82;;
63688;SDS011;54895;40.928;14.480;2023-04-24T02:17:26;8.60;;;5.60;;
63688;SDS011;54895;40.928;14.480;2023-04-24T02:19:53;8.38;;;5.43;;
63688;SDS011;54895;40.928;14.480;2023-04-24T02:22:19;7.82;;;5.20;;
63688;SDS011;54895;40.928;14.480;2023-04-24T02:24:46;7.80;;;5.15;;
63688;SDS011;54895;40.928;14.480;2023-04-24T02:27:15;9.43;;;5.55;;
63688;SDS011;54895;40.928;14.480;2023-04-24T02:29:41;9.57;;;5.90;;
63688;SDS011;54895;40.928;14.480;2023-04-24T02:32:08;8.98;;;5.60;;
63688;SDS011;54895;40.928;14.480;2023-04-24T02:34:37;10.48;;;5.97;;
63688;SDS011;54895;40.928;14.480;2023-04-24T02:37:04;9.20;;;6.20;;
63688;SDS011;54895;40.928;14.480;2023-04-24T02:39:31;9.88;;;6.00;;
63688;SDS011;54895;40.928;14.480;2023-04-24T02:41:57;9.93;;;6.38;;
63688;SDS011;54895;40.928;14.480;2023-04-24T02:44:24;8.95;;;6.00;;
63688;SDS011;54895;40.928;14.480;2023-04-24T02:46:50;8.90;;;5.88;;
63688;SDS011;54895;40.928;14.480;2023-04-24T02:49:17;13.43;;;7.63;;
63688;SDS011;54895;40.928;14.480;2023-04-24T02:51:43;11.50;;;7.50;;
63688;SDS011;54895;40.928;14.480;2023-04-24T02:54:10;11.50;;;7.43;;
63688;SDS011;54895;40.928;14.480;2023-04-24T02:56:37;12.68;;;7.28;;
63688;SDS011;54895;40.928;14.480;2023-04-24T02:59:05;10.63;;;6.75;;
63688;SDS011;54895;40.928;14.480;2023-04-24T03:01:32;11.27;;;6.63;;
63688;SDS011;54895;40.928;14.480;2023-04-24T03:03:59;13.15;;;5.85;;
63688;SDS011;54895;40.928;14.480;2023-04-24T03:06:26;10.80;;;6.40;;
63688;SDS011;54895;40.928;14.480;2023-04-24T03:08:53;9.60;;;6.10;;
63688;SDS011;54895;40.928;14.480;2023-04-24T03:11:20;8.32;;;5.70;;
63688;SDS011;54895;40.928;14.480;2023-04-24T03:13:47;9.93;;;6.10;;
63688;SDS011;54895;40.928;14.480;2023-04-24T03:16:13;9.90;;;5.93;;
63688;SDS011;54895;40.928;14.480;2023-04-24T03:18:39;11.23;;;6.70;;
63688;SDS011;54895;40.928;14.480;2023-04-24T03:21:07;10.07;;;6.43;;
63688;SDS011;54895;40.928;14.480;2023-04-24T03:23:34;10.25;;;7.10;;
63688;SDS011;54895;40.928;14.480;2023-04-24T03:26:01;10.65;;;6.68;;
63688;SDS011;54895;40.928;14.480;2023-04-24T03:28:29;12.57;;;7.10;;
63688;SDS011;54895;40.928;14.480;2023-04-24T03:31:02;8.32;;;6.22;;
63688;SDS011;54895;40.928;14.480;2023-04-24T03:33:33;12.82;;;5.90;;
63688;SDS011;54895;40.928;14.480;2023-04-24T03:36:01;9.05;;;5.38;;
63688;SDS011;54895;40.928;14.480;2023-04-24T03:38:35;10.65;;;6.10;;
63688;SDS011;54895;40.928;14.480;2023-04-24T03:41:24;8.23;;;5.65;;
63688;SDS011;54895;40.928;14.480;2023-04-24T03:43:55;9.57;;;5.78;;
63688;SDS011;54895;40.928;14.480;2023-04-24T03:46:22;9.52;;;5.60;;
63688;SDS011;54895;40.928;14.480;2023-04-24T03:48:54;8.35;;;5.68;;
63688;SDS011;54895;40.928;14.480;2023-04-24T03:51:25;11.38;;;5.65;;
63688;SDS011;54895;40.928;14.480;2023-04-24T03:53:56;10.35;;;4.85;;
63688;SDS011;54895;40.928;14.480;2023-04-24T03:56:25;10.27;;;5.30;;
63688;SDS011;54895;40.928;14.480;2023-04-24T03:58:52;10.15;;;5.47;;
63688;SDS011;54895;40.928;14.480;2023-04-24T04:01:19;13.48;;;5.63;;
63688;SDS011;54895;40.928;14.480;2023-04-24T04:03:52;9.90;;;5.07;;
63688;SDS011;54895;40.928;14.480;2023-04-24T04:06:22;12.00;;;5.63;;
63688;SDS011;54895;40.928;14.480;2023-04-24T04:08:51;9.30;;;5.22;;
63688;SDS011;54895;40.928;14.480;2023-04-24T04:11:18;10.13;;;5.93;;
63688;SDS011;54895;40.928;14.480;2023-04-24T04:13:45;12.65;;;5.53;;
63688;SDS011;54895;40.928;14.480;2023-04-24T04:16:15;10.63;;;6.25;;
63688;SDS011;54895;40.928;14.480;2023-04-24T04:18:47;8.73;;;5.30;;
63688;SDS011;54895;40.928;14.480;2023-04-24T04:21:15;14.13;;;7.30;;
63688;SDS011;54895;40.928;14.480;2023-04-24T04:23:41;8.68;;;6.05;;
63688;SDS011;54895;40.928;14.480;2023-04-24T04:26:14;10.38;;;5.95;;
63688;SDS011;54895;40.928;14.480;2023-04-24T04:29:07;21.77;;;8.47;;
63688;SDS011;54895;40.928;14.480;2023-04-24T04:31:36;20.38;;;8.70;;
63688;SDS011;54895;40.928;14.480;2023-04-24T04:34:07;14.88;;;8.90;;
63688;SDS011;54895;40.928;14.480;2023-04-24T04:36:35;13.55;;;8.32;;
63688;SDS011;54895;40.928;14.480;2023-04-24T04:39:14;16.30;;;8.55;;
63688;SDS011;54895;40.928;14.480;2023-04-24T04:41:52;13.25;;;8.30;;
63688;SDS011;54895;40.928;14.480;2023-04-24T04:44:22;13.65;;;8.07;;
63688;SDS011;54895;40.928;14.480;2023-04-24T04:46:50;14.18;;;8.30;;
63688;SDS011;54895;40.928;14.480;2023-04-24T04:49:27;11.60;;;7.50;;
63688;SDS011;54895;40.928;14.480;2023-04-24T04:51:55;19.50;;;8.20;;
63688;SDS011;54895;40.928;14.480;2023-04-24T04:54:24;17.45;;;8.07;;
63688;SDS011;54895;40.928;14.480;2023-04-24T04:56:51;13.27;;;8.18;;
63688;SDS011;54895;40.928;14.480;2023-04-24T04:59:18;11.05;;;6.45;;
63688;SDS011;54895;40.928;14.480;2023-04-24T05:01:47;17.70;;;8.45;;
63688;SDS011;54895;40.928;14.480;2023-04-24T05:04:15;15.32;;;6.90;;
63688;SDS011;54895;40.928;14.480;2023-04-24T05:06:42;13.23;;;7.25;;
63688;SDS011;54895;40.928;14.480;2023-04-24T05:09:09;12.65;;;7.13;;
63688;SDS011;54895;40.928;14.480;2023-04-24T05:11:43;11.88;;;7.18;;
63688;SDS011;54895;40.928;14.480;2023-04-24T05:14:10;12.25;;;6.38;;
63688;SDS011;54895;40.928;14.480;2023-04-24T05:16:39;9.85;;;5.80;;
63688;SDS011;54895;40.928;14.480;2023-04-24T05:19:08;11.15;;;6.28;;
63688;SDS011;54895;40.928;14.480;2023-04-24T05:21:40;13.80;;;5.50;;
63688;SDS011;54895;40.928;14.480;2023-04-24T05:24:07;12.50;;;5.93;;
63688;SDS011;54895;40.928;14.480;2023-04-24T05:26:53;18.77;;;7.25;;
63688;SDS011;54895;40.928;14.480;2023-04-24T05:29:24;8.43;;;5.22;;
63688;SDS011;54895;40.928;14.480;2023-04-24T05:31:53;11.38;;;4.55;;
63688;SDS011;54895;40.928;14.480;2023-04-24T05:34:20;10.82;;;5.82;;
63688;SDS011;54895;40.928;14.480;2023-04-24T05:36:52;10.02;;;5.93;;
63688;SDS011;54895;40.928;14.480;2023-04-24T05:39:19;9.05;;;5.18;;
63688;SDS011;54895;40.928;14.480;2023-04-24T05:41:46;11.93;;;5.38;;
63688;SDS011;54895;40.928;14.480;2023-04-24T05:44:13;14.95;;;5.80;;
63688;SDS011;54895;40.928;14.480;2023-04-24T05:46:39;8.98;;;4.78;;
63688;SDS011;54895;40.928;14.480;2023-04-24T05:49:06;9.38;;;5.05;;
63688;SDS011;54895;40.928;14.480;2023-04-24T05:51:33;8.75;;;5.20;;
63688;SDS011;54895;40.928;14.480;2023-04-24T05:54:00;10.52;;;5.63;;
63688;SDS011;54895;40.928;14.480;2023-04-24T05:56:29;9.68;;;5.30;;
63688;SDS011;54895;40.928;14.480;2023-04-24T05:58:57;9.80;;;4.88;;
63688;SDS011;54895;40.928;14.480;2023-04-24T06:01:23;9.77;;;5.50;;
63688;SDS011;54895;40.928;14.480;2023-04-24T06:03:58;12.38;;;5.38;;
63688;SDS011;54895;40.928;14.480;2023-04-24T06:06:25;9.05;;;4.90;;
63688;SDS011;54895;40.928;14.480;2023-04-24T06:08:53;12.00;;;5.55;;
63688;SDS011;54895;40.928;14.480;2023-04-24T06:11:19;13.98;;;5.57;;
63688;SDS011;54895;40.928;14.480;2023-04-24T06:13:47;14.70;;;5.15;;
63688;SDS011;54895;40.928;14.480;2023-04-24T06:16:37;11.63;;;4.55;;
63688;SDS011;54895;40.928;14.480;2023-04-24T06:19:13;11.30;;;4.80;;
63688;SDS011;54895;40.928;14.480;2023-04-24T06:21:41;6.95;;;4.30;;
63688;SDS011;54895;40.928;14.480;2023-04-24T06:24:07;10.65;;;4.65;;
63688;SDS011;54895;40.928;14.480;2023-04-24T06:26:34;8.70;;;3.72;;
63688;SDS011;54895;40.928;14.480;2023-04-24T06:29:01;7.57;;;3.40;;
63688;SDS011;54895;40.928;14.480;2023-04-24T06:31:28;8.60;;;3.58;;
63688;SDS011;54895;40.928;14.480;2023-04-24T06:33:55;6.55;;;3.13;;
63688;SDS011;54895;40.928;14.480;2023-04-24T06:36:22;6.30;;;3.40;;
63688;SDS011;54895;40.928;14.480;2023-04-24T06:38:49;4.85;;;2.90;;
63688;SDS011;54895;40.928;14.480;2023-04-24T06:41:15;7.22;;;3.13;;
63688;SDS011;54895;40.928;14.480;2023-04-24T06:43:42;4.00;;;2.80;;
63688;SDS011;54895;40.928;14.480;2023-04-24T06:46:09;5.68;;;3.08;;
63688;SDS011;54895;40.928;14.480;2023-04-24T06:48:36;7.95;;;3.40;;
63688;SDS011;54895;40.928;14.480;2023-04-24T06:51:03;5.68;;;3.40;;
63688;SDS011;54895;40.928;14.480;2023-04-24T06:53:30;7.70;;;3.60;;
63688;SDS011;54895;40.928;14.480;2023-04-24T06:55:57;6.40;;;3.60;;
63688;SDS011;54895;40.928;14.480;2023-04-24T06:58:24;6.63;;;3.70;;
63688;SDS011;54895;40.928;14.480;2023-04-24T07:00:51;11.23;;;4.30;;
63688;SDS011;54895;40.928;14.480;2023-04-24T07:03:18;7.82;;;4.10;;
63688;SDS011;54895;40.928;14.480;2023-04-24T07:05:45;8.27;;;4.30;;
63688;SDS011;54895;40.928;14.480;2023-04-24T07:08:12;7.50;;;3.60;;
63688;SDS011;54895;40.928;14.480;2023-04-24T07:10:39;10.15;;;3.60;;
63688;SDS011;54895;40.928;14.480;2023-04-24T07:13:06;7.60;;;2.85;;
63688;SDS011;54895;40.928;14.480;2023-04-24T07:15:34;8.30;;;3.08;;
63688;SDS011;54895;40.928;14.480;2023-04-24T07:18:01;5.90;;;3.28;;
63688;SDS011;54895;40.928;14.480;2023-04-24T07:20:28;7.60;;;2.50;;
63688;SDS011;54895;40.928;14.480;2023-04-24T07:22:55;10.07;;;3.15;;
63688;SDS011;54895;40.928;14.480;2023-04-24T07:25:22;7.38;;;2.60;;
63688;SDS011;54895;40.928;14.480;2023-04-24T07:27:49;4.65;;;2.70;;
63688;SDS011;54895;40.928;14.480;2023-04-24T07:30:15;7.97;;;2.70;;
63688;SDS011;54895;40.928;14.480;2023-04-24T07:32:42;5.07;;;2.90;;
63688;SDS011;54895;40.928;14.480;2023-04-24T07:35:09;8.27;;;2.78;;
63688;SDS011;54895;40.928;14.480;2023-04-24T07:37:36;7.93;;;3.10;;
63688;SDS011;54895;40.928;14.480;2023-04-24T07:40:03;8.48;;;2.63;;
63688;SDS011;54895;40.928;14.480;2023-04-24T07:42:30;6.95;;;2.78;;
63688;SDS011;54895;40.928;14.480;2023-04-24T07:44:57;6.05;;;2.30;;
63688;SDS011;54895;40.928;14.480;2023-04-24T07:47:25;6.15;;;2.65;;
63688;SDS011;54895;40.928;14.480;2023-04-24T07:49:52;6.82;;;2.63;;
63688;SDS011;54895;40.928;14.480;2023-04-24T07:52:19;5.47;;;1.92;;
63688;SDS011;54895;40.928;14.480;2023-04-24T07:54:47;6.18;;;2.55;;
63688;SDS011;54895;40.928;14.480;2023-04-24T07:57:13;4.20;;;2.05;;
63688;SDS011;54895;40.928;14.480;2023-04-24T07:59:41;5.60;;;2.63;;
63688;SDS011;54895;40.928;14.480;2023-04-24T08:02:08;7.20;;;2.17;;
63688;SDS011;54895;40.928;14.480;2023-04-24T08:04:35;6.47;;;2.25;;
63688;SDS011;54895;40.928;14.480;2023-04-24T08:07:02;5.95;;;2.13;;
63688;SDS011;54895;40.928;14.480;2023-04-24T08:09:29;7.95;;;2.20;;
63688;SDS011;54895;40.928;14.480;2023-04-24T08:11:56;5.72;;;2.10;;
63688;SDS011;54895;40.928;14.480;2023-04-24T08:14:23;6.60;;;3.00;;
63688;SDS011;54895;40.928;14.480;2023-04-24T08:16:51;7.53;;;2.90;;
63688;SDS011;54895;40.928;14.480;2023-04-24T08:19:20;8.73;;;2.58;;
63688;SDS011;54895;40.928;14.480;2023-04-24T08:21:50;7.75;;;2.75;;
63688;SDS011;54895;40.928;14.480;2023-04-24T08:24:28;7.28;;;2.50;;
63688;SDS011;54895;40.928;14.480;2023-04-24T08:27:01;7.20;;;2.53;;
63688;SDS011;54895;40.928;14.480;2023-04-24T08:29:33;9.50;;;2.28;;
63688;SDS011;54895;40.928;14.480;2023-04-24T08:32:02;11.68;;;2.88;;
63688;SDS011;54895;40.928;14.480;2023-04-24T08:34:33;9.00;;;2.65;;
63688;SDS011;54895;40.928;14.480;2023-04-24T08:37:01;4.63;;;2.10;;
63688;SDS011;54895;40.928;14.480;2023-04-24T08:39:30;12.32;;;2.35;;
63688;SDS011;54895;40.928;14.480;2023-04-24T08:41:57;9.43;;;2.65;;
63688;SDS011;54895;40.928;14.480;2023-04-24T08:44:32;10.77;;;3.17;;
63688;SDS011;54895;40.928;14.480;2023-04-24T08:46:59;11.00;;;2.97;;
63688;SDS011;54895;40.928;14.480;2023-04-24T08:49:28;8.60;;;2.70;;
63688;SDS011;54895;40.928;14.480;2023-04-24T08:51:57;9.10;;;3.17;;
63688;SDS011;54895;40.928;14.480;2023-04-24T08:54:26;5.63;;;2.75;;
63688;SDS011;54895;40.928;14.480;2023-04-24T08:56:57;9.73;;;3.30;;
63688;SDS011;54895;40.928;14.480;2023-04-24T08:59:27;11.20;;;3.25;;
63688;SDS011;54895;40.928;14.480;2023-04-24T09:01:55;10.77;;;3.35;;
63688;SDS011;54895;40.928;14.480;2023-04-24T09:04:24;8.55;;;2.88;;
63688;SDS011;54895;40.928;14.480;2023-04-24T09:06:56;9.93;;;3.13;;
63688;SDS011;54895;40.928;14.480;2023-04-24T09:09:25;10.13;;;3.20;;
63688;SDS011;54895;40.928;14.480;2023-04-24T09:11:53;12.80;;;3.70;;
63688;SDS011;54895;40.928;14.480;2023-04-24T09:14:21;12.27;;;3.60;;
63688;SDS011;54895;40.928;14.480;2023-04-24T09:16:50;10.70;;;3.90;;
63688;SDS011;54895;40.928;14.480;2023-04-24T09:19:17;12.18;;;3.97;;
63688;SDS011;54895;40.928;14.480;2023-04-24T09:21:46;10.98;;;3.47;;
63688;SDS011;54895;40.928;14.480;2023-04-24T09:24:18;11.55;;;4.22;;
63688;SDS011;54895;40.928;14.480;2023-04-24T09:26:49;12.02;;;4.38;;
63688;SDS011;54895;40.928;14.480;2023-04-24T09:29:28;9.80;;;3.85;;
63688;SDS011;54895;40.928;14.480;2023-04-24T09:31:55;5.28;;;2.65;;
63688;SDS011;54895;40.928;14.480;2023-04-24T09:34:23;14.55;;;3.85;;
63688;SDS011;54895;40.928;14.480;2023-04-24T09:36:54;9.20;;;3.22;;
63688;SDS011;54895;40.928;14.480;2023-04-24T09:39:22;9.27;;;3.85;;
63688;SDS011;54895;40.928;14.480;2023-04-24T09:41:52;10.35;;;3.45;;
63688;SDS011;54895;40.928;14.480;2023-04-24T09:44:24;8.85;;;3.53;;
63688;SDS011;54895;40.928;14.480;2023-04-24T09:46:57;8.57;;;3.30;;
63688;SDS011;54895;40.928;14.480;2023-04-24T09:52:04;10.70;;;3.50;;
63688;SDS011;54895;40.928;14.480;2023-04-24T09:54:33;12.00;;;3.90;;
63688;SDS011;54895;40.928;14.480;2023-04-24T09:57:03;11.02;;;3.65;;
63688;SDS011;54895;40.928;14.480;2023-04-24T09:59:31;10.93;;;4.38;;
63688;SDS011;54895;40.928;14.480;2023-04-24T10:01:59;12.77;;;4.10;;
63688;SDS011;54895;40.928;14.480;2023-04-24T10:04:27;12.65;;;4.47;;
63688;SDS011;54895;40.928;14.480;2023-04-24T10:06:56;11.48;;;3.80;;
63688;SDS011;54895;40.928;14.480;2023-04-24T10:09:25;13.23;;;4.45;;
63688;SDS011;54895;40.928;14.480;2023-04-24T10:11:54;13.55;;;4.15;;
63688;SDS011;54895;40.928;14.480;2023-04-24T10:14:25;13.70;;;4.40;;
63688;SDS011;54895;40.928;14.480;2023-04-24T10:16:53;13.63;;;4.25;;
63688;SDS011;54895;40.928;14.480;2023-04-24T10:19:24;14.13;;;4.47;;
63688;SDS011;54895;40.928;14.480;2023-04-24T10:21:52;20.15;;;4.68;;
63688;SDS011;54895;40.928;14.480;2023-04-24T10:24:21;15.90;;;3.83;;
63688;SDS011;54895;40.928;14.480;2023-04-24T10:26:48;10.75;;;3.20;;
63688;SDS011;54895;40.928;14.480;2023-04-24T10:29:18;7.10;;;2.60;;
63688;SDS011;54895;40.928;14.480;2023-04-24T10:31:46;11.38;;;3.47;;
63688;SDS011;54895;40.928;14.480;2023-04-24T10:34:13;11.20;;;3.83;;
63688;SDS011;54895;40.928;14.480;2023-04-24T10:36:43;9.30;;;3.15;;
63688;SDS011;54895;40.928;14.480;2023-04-24T10:39:14;13.15;;;3.83;;
63688;SDS011;54895;40.928;14.480;2023-04-24T10:41:42;12.32;;;3.67;;
63688;SDS011;54895;40.928;14.480;2023-04-24T10:44:10;12.85;;;4.10;;
63688;SDS011;54895;40.928;14.480;2023-04-24T10:46:38;11.27;;;3.97;;
63688;SDS011;54895;40.928;14.480;2023-04-24T10:49:06;11.23;;;3.25;;
63688;SDS011;54895;40.928;14.480;2023-04-24T10:51:46;13.25;;;4.68;;
63688;SDS011;54895;40.928;14.480;2023-04-24T10:54:24;17.65;;;6.03;;
63688;SDS011;54895;40.928;14.480;2023-04-24T10:56:52;14.98;;;4.88;;
63688;SDS011;54895;40.928;14.480;2023-04-24T10:59:24;20.63;;;6.20;;
63688;SDS011;54895;40.928;14.480;2023-04-24T11:04:30;15.93;;;4.63;;
63688;SDS011;54895;40.928;14.480;2023-04-24T11:06:59;20.15;;;5.55;;
63688;SDS011;54895;40.928;14.480;2023-04-24T11:09:27;16.48;;;5.50;;
63688;SDS011;54895;40.928;14.480;2023-04-24T11:12:03;13.65;;;4.50;;
63688;SDS011;54895;40.928;14.480;2023-04-24T11:17:54;13.77;;;3.90;;
63688;SDS011;54895;40.928;14.480;2023-04-24T11:21:06;5.05;;;2.30;;
63688;SDS011;54895;40.928;14.480;2023-04-24T11:23:39;4.20;;;1.98;;
63688;SDS011;54895;40.928;14.480;2023-04-24T11:26:36;10.70;;;2.85;;
63688;SDS011;54895;40.928;14.480;2023-04-24T11:29:28;7.28;;;3.17;;
63688;SDS011;54895;40.928;14.480;2023-04-24T11:38:11;8.38;;;2.67;;
63688;SDS011;54895;40.928;14.480;2023-04-24T11:45:31;5.00;;;1.98;;
63688;SDS011;54895;40.928;14.480;2023-04-24T11:48:16;7.63;;;1.98;;
63688;SDS011;54895;40.928;14.480;2023-04-24T11:50:46;6.38;;;2.20;;
63688;SDS011;54895;40.928;14.480;2023-04-24T11:53:23;5.85;;;1.73;;
63688;SDS011;54895;40.928;14.480;2023-04-24T11:56:05;7.95;;;2.83;;
63688;SDS011;54895;40.928;14.480;2023-04-24T11:58:40;4.88;;;1.83;;
63688;SDS011;54895;40.928;14.480;2023-04-24T12:01:09;5.63;;;2.17;;
63688;SDS011;54895;40.928;14.480;2023-04-24T12:03:36;11.65;;;2.25;;
63688;SDS011;54895;40.928;14.480;2023-04-24T12:06:10;5.28;;;2.28;;
63688;SDS011;54895;40.928;14.480;2023-04-24T12:08:38;5.50;;;2.10;;
63688;SDS011;54895;40.928;14.480;2023-04-24T12:11:05;4.22;;;1.88;;
63688;SDS011;54895;40.928;14.480;2023-04-24T12:13:34;5.40;;;2.03;;
63688;SDS011;54895;40.928;14.480;2023-04-24T12:16:03;4.22;;;1.88;;
63688;SDS011;54895;40.928;14.480;2023-04-24T12:18:50;6.47;;;2.10;;
63688;SDS011;54895;40.928;14.480;2023-04-24T12:21:18;7.60;;;2.20;;
63688;SDS011;54895;40.928;14.480;2023-04-24T12:23:46;10.40;;;2.65;;
63688;SDS011;54895;40.928;14.480;2023-04-24T12:26:20;12.15;;;2.63;;
63688;SDS011;54895;40.928;14.480;2023-04-24T12:28:49;8.52;;;2.65;;
63688;SDS011;54895;40.928;14.480;2023-04-24T12:31:16;4.47;;;1.58;;
63688;SDS011;54895;40.928;14.480;2023-04-24T12:33:43;7.53;;;1.77;;
63688;SDS011;54895;40.928;14.480;2023-04-24T12:36:13;7.13;;;1.92;;
63688;SDS011;54895;40.928;14.480;2023-04-24T12:38:43;5.47;;;1.30;;
63688;SDS011;54895;40.928;14.480;2023-04-24T12:41:13;5.88;;;1.65;;
63688;SDS011;54895;40.928;14.480;2023-04-24T12:43:51;9.55;;;2.00;;
63688;SDS011;54895;40.928;14.480;2023-04-24T12:46:19;8.63;;;1.75;;
63688;SDS011;54895;40.928;14.480;2023-04-24T12:48:50;7.32;;;1.60;;
63688;SDS011;54895;40.928;14.480;2023-04-24T12:51:17;5.70;;;1.60;;
63688;SDS011;54895;40.928;14.480;2023-04-24T12:53:45;6.18;;;1.80;;
63688;SDS011;54895;40.928;14.480;2023-04-24T12:56:17;7.37;;;1.73;;
63688;SDS011;54895;40.928;14.480;2023-04-24T12:58:46;6.03;;;1.20;;
63688;SDS011;54895;40.928;14.480;2023-04-24T13:01:14;4.88;;;1.40;;
63688;SDS011;54895;40.928;14.480;2023-04-24T13:03:47;3.97;;;1.30;;
63688;SDS011;54895;40.928;14.480;2023-04-24T13:06:14;11.48;;;1.50;;
63688;SDS011;54895;40.928;14.480;2023-04-24T13:08:41;4.25;;;1.25;;
63688;SDS011;54895;40.928;14.480;2023-04-24T13:11:08;2.45;;;0.88;;
63688;SDS011;54895;40.928;14.480;2023-04-24T13:13:35;2.17;;;0.98;;
63688;SDS011;54895;40.928;14.480;2023-04-24T13:16:01;2.78;;;1.27;;
63688;SDS011;54895;40.928;14.480;2023-04-24T13:18:29;5.10;;;1.02;;
63688;SDS011;54895;40.928;14.480;2023-04-24T13:20:57;4.57;;;1.20;;
63688;SDS011;54895;40.928;14.480;2023-04-24T13:23:24;3.08;;;1.40;;
63688;SDS011;54895;40.928;14.480;2023-04-24T13:25:54;1.70;;;1.08;;
63688;SDS011;54895;40.928;14.480;2023-04-24T13:28:24;3.10;;;1.20;;
63688;SDS011;54895;40.928;14.480;2023-04-24T13:30:51;3.38;;;1.60;;
63688;SDS011;54895;40.928;14.480;2023-04-24T13:33:19;5.22;;;1.25;;
63688;SDS011;54895;40.928;14.480;2023-04-24T13:35:49;3.63;;;1.67;;
63688;SDS011;54895;40.928;14.480;2023-04-24T13:38:17;3.85;;;1.30;;
63688;SDS011;54895;40.928;14.480;2023-04-24T13:43:40;4.22;;;1.00;;
63688;SDS011;54895;40.928;14.480;2023-04-24T13:46:08;4.68;;;1.52;;
63688;SDS011;54895;40.928;14.480;2023-04-24T13:48:35;9.77;;;1.83;;
63688;SDS011;54895;40.928;14.480;2023-04-24T13:51:02;9.50;;;1.70;;
63688;SDS011;54895;40.928;14.480;2023-04-24T13:53:32;5.78;;;1.70;;
63688;SDS011;54895;40.928;14.480;2023-04-24T13:56:03;6.37;;;1.60;;
63688;SDS011;54895;40.928;14.480;2023-04-24T13:58:30;5.57;;;1.50;;
63688;SDS011;54895;40.928;14.480;2023-04-24T14:00:56;6.50;;;1.85;;
63688;SDS011;54895;40.928;14.480;2023-04-24T14:03:22;3.78;;;1.58;;
63688;SDS011;54895;40.928;14.480;2023-04-24T14:05:49;4.35;;;1.30;;
63688;SDS011;54895;40.928;14.480;2023-04-24T14:08:15;5.35;;;2.50;;
63688;SDS011;54895;40.928;14.480;2023-04-24T14:10:42;8.45;;;2.20;;
63688;SDS011;54895;40.928;14.480;2023-04-24T14:13:08;5.40;;;1.48;;
63688;SDS011;54895;40.928;14.480;2023-04-24T14:15:35;6.20;;;1.63;;
63688;SDS011;54895;40.928;14.480;2023-04-24T14:18:02;4.13;;;1.52;;
63688;SDS011;54895;40.928;14.480;2023-04-24T14:23:50;6.80;;;2.10;;
63688;SDS011;54895;40.928;14.480;2023-04-24T14:26:22;7.65;;;1.90;;
63688;SDS011;54895;40.928;14.480;2023-04-24T14:28:55;3.85;;;1.25;;
63688;SDS011;54895;40.928;14.480;2023-04-24T14:36:36;4.15;;;1.27;;
63688;SDS011;54895;40.928;14.480;2023-04-24T14:39:03;4.43;;;1.45;;
63688;SDS011;54895;40.928;14.480;2023-04-24T14:41:33;6.63;;;1.60;;
63688;SDS011;54895;40.928;14.480;2023-04-24T14:44:02;4.55;;;1.67;;
63688;SDS011;54895;40.928;14.480;2023-04-24T14:46:29;3.00;;;1.00;;
63688;SDS011;54895;40.928;14.480;2023-04-24T14:48:56;3.45;;;1.25;;
63688;SDS011;54895;40.928;14.480;2023-04-24T14:51:24;4.50;;;1.13;;
63688;SDS011;54895;40.928;14.480;2023-04-24T14:53:52;4.18;;;1.70;;
63688;SDS011;54895;40.928;14.480;2023-04-24T14:56:20;4.75;;;1.50;;
63688;SDS011;54895;40.928;14.480;2023-04-24T14:58:46;6.90;;;1.60;;
63688;SDS011;54895;40.928;14.480;2023-04-24T15:01:13;3.08;;;1.40;;
63688;SDS011;54895;40.928;14.480;2023-04-24T15:03:39;5.03;;;1.77;;
63688;SDS011;54895;40.928;14.480;2023-04-24T15:06:06;4.95;;;1.35;;
63688;SDS011;54895;40.928;14.480;2023-04-24T15:08:32;4.43;;;1.35;;
63688;SDS011;54895;40.928;14.480;2023-04-24T15:10:59;5.15;;;1.33;;
63688;SDS011;54895;40.928;14.480;2023-04-24T15:13:26;6.07;;;1.58;;
63688;SDS011;54895;40.928;14.480;2023-04-24T15:15:53;5.28;;;1.52;;
63688;SDS011;54895;40.928;14.480;2023-04-24T15:18:19;5.57;;;1.70;;
63688;SDS011;54895;40.928;14.480;2023-04-24T15:24:59;6.75;;;1.80;;
63688;SDS011;54895;40.928;14.480;2023-04-24T15:27:27;6.22;;;2.00;;
63688;SDS011;54895;40.928;14.480;2023-04-24T15:30:04;8.35;;;2.40;;
63688;SDS011;54895;40.928;14.480;2023-04-24T15:32:31;7.03;;;2.33;;